sensor_id;sensor_type;location;lat;lon;timestamp;P1;durP1;ratioP1;P2;durP2;ratioP2
55292;SDS011;41157;53.560;10.098;2024-03-08T00:01:36;16.67;;;9.40;;
55292;SDS011;41157;53.560;10.098;2024-03-08T00:04:03;14.97;;;8.80;;
55292;SDS011;41157;53.560;10.098;2024-03-08T00:06:31;19.53;;;8.97;;
55292;SDS011;41157;53.560;10.098;2024-03-08T00:08:59;17.07;;;8.93;;
55292;SDS011;41157;53.560;10.098;2024-03-08T00:11:26;21.43;;;9.87;;
55292;SDS011;41157;53.560;10.098;2024-03-08T00:13:53;17.73;;;9.50;;
55292;SDS011;41157;53.560;10.098;2024-03-08T00:16:20;19.73;;;8.73;;
55292;SDS011;41157;53.560;10.098;2024-03-08T00:18:48;18.77;;;9.80;;
55292;SDS011;41157;53.560;10.098;2024-03-08T00:21:15;19.73;;;8.80;;
55292;SDS011;41157;53.560;10.098;2024-03-08T00:23:42;14.77;;;8.83;;
55292;SDS011;41157;53.560;10.098;2024-03-08T00:26:10;15.00;;;8.87;;
55292;SDS011;41157;53.560;10.098;2024-03-08T00:28:37;15.63;;;8.70;;
55292;SDS011;41157;53.560;10.098;2024-03-08T00:31:04;17.53;;;9.43;;
55292;SDS011;41157;53.560;10.098;2024-03-08T00:33:31;16.97;;;8.90;;
55292;SDS011;41157;53.560;10.098;2024-03-08T00:35:59;18.20;;;9.53;;
55292;SDS011;41157;53.560;10.098;2024-03-08T00:38:25;17.20;;;8.93;;
55292;SDS011;41157;53.560;10.098;2024-03-08T00:40:52;19.37;;;9.83;;
55292;SDS011;41157;53.560;10.098;2024-03-08T00:43:22;18.50;;;8.47;;
55292;SDS011;41157;53.560;10.098;2024-03-08T00:45:49;17.60;;;8.63;;
55292;SDS011;41157;53.560;10.098;2024-03-08T00:48:16;16.67;;;9.83;;
55292;SDS011;41157;53.560;10.098;2024-03-08T00:50:43;19.63;;;9.33;;
55292;SDS011;41157;53.560;10.098;2024-03-08T00:53:10;15.93;;;8.83;;
55292;SDS011;41157;53.560;10.098;2024-03-08T00:55:37;16.73;;;9.37;;
55292;SDS011;41157;53.560;10.098;2024-03-08T00:58:04;19.47;;;9.40;;
55292;SDS011;41157;53.560;10.098;2024-03-08T01:00:33;19.17;;;9.63;;
55292;SDS011;41157;53.560;10.098;2024-03-08T01:03:00;15.20;;;8.83;;
55292;SDS011;41157;53.560;10.098;2024-03-08T01:05:28;19.70;;;9.30;;
55292;SDS011;41157;53.560;10.098;2024-03-08T01:07:55;18.50;;;8.90;;
55292;SDS011;41157;53.560;10.098;2024-03-08T01:10:22;15.80;;;8.50;;
55292;SDS011;41157;53.560;10.098;2024-03-08T01:12:49;18.70;;;9.50;;
55292;SDS011;41157;53.560;10.098;2024-03-08T01:15:16;21.50;;;10.40;;
55292;SDS011;41157;53.560;10.098;2024-03-08T01:17:44;18.10;;;9.23;;
55292;SDS011;41157;53.560;10.098;2024-03-08T01:20:11;16.03;;;8.70;;
55292;SDS011;41157;53.560;10.098;2024-03-08T01:22:38;16.00;;;9.27;;
55292;SDS011;41157;53.560;10.098;2024-03-08T01:25:06;15.30;;;9.07;;
55292;SDS011;41157;53.560;10.098;2024-03-08T01:27:33;17.87;;;9.10;;
55292;SDS011;41157;53.560;10.098;2024-03-08T01:30:01;16.63;;;9.57;;
55292;SDS011;41157;53.560;10.098;2024-03-08T01:32:29;19.80;;;9.77;;
55292;SDS011;41157;53.560;10.098;2024-03-08T01:34:57;17.67;;;9.70;;
55292;SDS011;41157;53.560;10.098;2024-03-08T01:37:24;17.73;;;9.90;;
55292;SDS011;41157;53.560;10.098;2024-03-08T01:39:51;19.40;;;10.27;;
55292;SDS011;41157;53.560;10.098;2024-03-08T01:42:18;20.23;;;10.43;;
55292;SDS011;41157;53.560;10.098;2024-03-08T01:44:47;17.87;;;9.27;;
55292;SDS011;41157;53.560;10.098;2024-03-08T01:47:14;19.73;;;10.20;;
55292;SDS011;41157;53.560;10.098;2024-03-08T01:49:41;21.27;;;9.50;;
55292;SDS011;41157;53.560;10.098;2024-03-08T01:52:10;16.93;;;9.70;;
55292;SDS011;41157;53.560;10.098;2024-03-08T01:54:37;22.50;;;10.10;;
55292;SDS011;41157;53.560;10.098;2024-03-08T01:57:06;18.47;;;9.93;;
55292;SDS011;41157;53.560;10.098;2024-03-08T01:59:33;16.70;;;9.37;;
55292;SDS011;41157;53.560;10.098;2024-03-08T02:02:01;17.90;;;9.80;;
55292;SDS011;41157;53.560;10.098;2024-03-08T02:04:28;16.57;;;9.50;;
55292;SDS011;41157;53.560;10.098;2024-03-08T02:06:56;18.23;;;9.67;;
55292;SDS011;41157;53.560;10.098;2024-03-08T02:09:25;17.20;;;10.20;;
55292;SDS011;41157;53.560;10.098;2024-03-08T02:11:52;20.10;;;10.23;;
55292;SDS011;41157;53.560;10.098;2024-03-08T02:14:19;17.53;;;9.30;;
55292;SDS011;41157;53.560;10.098;2024-03-08T02:16:46;22.27;;;10.07;;
55292;SDS011;41157;53.560;10.098;2024-03-08T02:19:14;16.90;;;9.10;;
55292;SDS011;41157;53.560;10.098;2024-03-08T02:21:42;18.50;;;9.30;;
55292;SDS011;41157;53.560;10.098;2024-03-08T02:24:12;22.73;;;10.10;;
55292;SDS011;41157;53.560;10.098;2024-03-08T02:26:39;19.37;;;9.97;;
55292;SDS011;41157;53.560;10.098;2024-03-08T02:29:07;19.27;;;10.00;;
55292;SDS011;41157;53.560;10.098;2024-03-08T02:31:34;18.10;;;10.07;;
55292;SDS011;41157;53.560;10.098;2024-03-08T02:34:01;15.93;;;9.30;;
55292;SDS011;41157;53.560;10.098;2024-03-08T02:36:28;23.30;;;11.07;;
55292;SDS011;41157;53.560;10.098;2024-03-08T02:38:56;19.57;;;10.00;;
55292;SDS011;41157;53.560;10.098;2024-03-08T02:41:23;20.07;;;10.37;;
55292;SDS011;41157;53.560;10.098;2024-03-08T02:43:50;18.00;;;9.93;;
55292;SDS011;41157;53.560;10.098;2024-03-08T02:46:17;19.80;;;9.73;;
55292;SDS011;41157;53.560;10.098;2024-03-08T02:48:45;18.27;;;9.80;;
55292;SDS011;41157;53.560;10.098;2024-03-08T02:51:12;17.03;;;9.50;;
55292;SDS011;41157;53.560;10.098;2024-03-08T02:53:41;25.97;;;9.33;;
55292;SDS011;41157;53.560;10.098;2024-03-08T02:56:09;24.03;;;10.60;;
55292;SDS011;41157;53.560;10.098;2024-03-08T02:58:38;21.13;;;9.87;;
55292;SDS011;41157;53.560;10.098;2024-03-08T03:01:05;21.40;;;10.70;;
55292;SDS011;41157;53.560;10.098;2024-03-08T03:03:32;20.83;;;10.10;;
55292;SDS011;41157;53.560;10.098;2024-03-08T03:05:59;17.37;;;10.03;;
55292;SDS011;41157;53.560;10.098;2024-03-08T03:08:26;26.50;;;10.93;;
55292;SDS011;41157;53.560;10.098;2024-03-08T03:10:53;16.47;;;9.63;;
55292;SDS011;41157;53.560;10.098;2024-03-08T03:13:23;18.77;;;9.43;;
55292;SDS011;41157;53.560;10.098;2024-03-08T03:15:49;16.67;;;9.43;;
55292;SDS011;41157;53.560;10.098;2024-03-08T03:18:16;18.90;;;9.93;;
55292;SDS011;41157;53.560;10.098;2024-03-08T03:20:46;20.40;;;10.83;;
55292;SDS011;41157;53.560;10.098;2024-03-08T03:23:14;23.17;;;11.00;;
55292;SDS011;41157;53.560;10.098;2024-03-08T03:25:45;19.47;;;10.30;;
55292;SDS011;41157;53.560;10.098;2024-03-08T03:28:12;20.03;;;10.37;;
55292;SDS011;41157;53.560;10.098;2024-03-08T03:30:44;24.67;;;10.33;;
55292;SDS011;41157;53.560;10.098;2024-03-08T03:33:11;18.83;;;10.10;;
55292;SDS011;41157;53.560;10.098;2024-03-08T03:35:40;19.33;;;9.97;;
55292;SDS011;41157;53.560;10.098;2024-03-08T03:38:08;19.77;;;10.40;;
55292;SDS011;41157;53.560;10.098;2024-03-08T03:40:35;18.00;;;9.90;;
55292;SDS011;41157;53.560;10.098;2024-03-08T03:43:02;21.70;;;10.27;;
55292;SDS011;41157;53.560;10.098;2024-03-08T03:45:29;18.17;;;10.03;;
55292;SDS011;41157;53.560;10.098;2024-03-08T03:51:01;22.97;;;11.10;;
55292;SDS011;41157;53.560;10.098;2024-03-08T03:53:29;20.77;;;10.33;;
55292;SDS011;41157;53.560;10.098;2024-03-08T03:55:56;17.77;;;9.57;;
55292;SDS011;41157;53.560;10.098;2024-03-08T03:58:24;19.30;;;10.40;;
55292;SDS011;41157;53.560;10.098;2024-03-08T04:00:52;18.77;;;10.27;;
55292;SDS011;41157;53.560;10.098;2024-03-08T04:03:19;19.70;;;9.83;;
55292;SDS011;41157;53.560;10.098;2024-03-08T04:05:46;19.00;;;10.03;;
55292;SDS011;41157;53.560;10.098;2024-03-08T04:08:15;18.87;;;11.03;;
55292;SDS011;41157;53.560;10.098;2024-03-08T04:10:42;20.93;;;10.20;;
55292;SDS011;41157;53.560;10.098;2024-03-08T04:13:09;21.47;;;10.73;;
55292;SDS011;41157;53.560;10.098;2024-03-08T04:15:36;16.57;;;10.00;;
55292;SDS011;41157;53.560;10.098;2024-03-08T04:18:03;19.20;;;10.03;;
55292;SDS011;41157;53.560;10.098;2024-03-08T04:20:30;22.73;;;11.37;;
55292;SDS011;41157;53.560;10.098;2024-03-08T04:22:57;21.83;;;10.47;;
55292;SDS011;41157;53.560;10.098;2024-03-08T04:25:25;23.70;;;10.63;;
55292;SDS011;41157;53.560;10.098;2024-03-08T04:27:53;17.73;;;10.30;;
55292;SDS011;41157;53.560;10.098;2024-03-08T04:30:20;20.17;;;10.23;;
55292;SDS011;41157;53.560;10.098;2024-03-08T04:32:47;17.73;;;10.33;;
55292;SDS011;41157;53.560;10.098;2024-03-08T04:35:14;23.40;;;10.20;;
55292;SDS011;41157;53.560;10.098;2024-03-08T04:37:41;19.80;;;9.83;;
55292;SDS011;41157;53.560;10.098;2024-03-08T04:40:10;20.70;;;10.77;;
55292;SDS011;41157;53.560;10.098;2024-03-08T04:42:39;19.90;;;10.47;;
55292;SDS011;41157;53.560;10.098;2024-03-08T04:45:06;22.83;;;10.50;;
55292;SDS011;41157;53.560;10.098;2024-03-08T04:47:35;20.27;;;10.90;;
55292;SDS011;41157;53.560;10.098;2024-03-08T04:50:03;25.30;;;10.97;;
55292;SDS011;41157;53.560;10.098;2024-03-08T04:52:30;21.47;;;10.30;;
55292;SDS011;41157;53.560;10.098;2024-03-08T04:54:57;21.10;;;10.33;;
55292;SDS011;41157;53.560;10.098;2024-03-08T04:57:24;23.70;;;10.53;;
55292;SDS011;41157;53.560;10.098;2024-03-08T04:59:52;22.40;;;10.77;;
55292;SDS011;41157;53.560;10.098;2024-03-08T05:02:19;25.57;;;10.37;;
55292;SDS011;41157;53.560;10.098;2024-03-08T05:04:47;20.23;;;10.87;;
55292;SDS011;41157;53.560;10.098;2024-03-08T05:07:14;21.37;;;10.37;;
55292;SDS011;41157;53.560;10.098;2024-03-08T05:09:41;22.13;;;10.40;;
55292;SDS011;41157;53.560;10.098;2024-03-08T05:12:16;24.80;;;10.50;;
55292;SDS011;41157;53.560;10.098;2024-03-08T05:14:43;21.47;;;10.67;;
55292;SDS011;41157;53.560;10.098;2024-03-08T05:17:12;17.30;;;9.57;;
55292;SDS011;41157;53.560;10.098;2024-03-08T05:19:39;22.27;;;10.50;;
55292;SDS011;41157;53.560;10.098;2024-03-08T05:22:06;21.40;;;10.40;;
55292;SDS011;41157;53.560;10.098;2024-03-08T05:24:33;25.13;;;10.90;;
55292;SDS011;41157;53.560;10.098;2024-03-08T05:27:00;23.40;;;11.63;;
55292;SDS011;41157;53.560;10.098;2024-03-08T05:29:28;16.97;;;9.57;;
55292;SDS011;41157;53.560;10.098;2024-03-08T05:31:55;22.07;;;10.40;;
55292;SDS011;41157;53.560;10.098;2024-03-08T05:34:24;22.07;;;10.23;;
55292;SDS011;41157;53.560;10.098;2024-03-08T05:36:53;21.67;;;10.13;;
55292;SDS011;41157;53.560;10.098;2024-03-08T05:39:20;20.30;;;10.93;;
55292;SDS011;41157;53.560;10.098;2024-03-08T05:41:47;17.73;;;10.27;;
55292;SDS011;41157;53.560;10.098;2024-03-08T05:44:15;20.43;;;10.17;;
55292;SDS011;41157;53.560;10.098;2024-03-08T05:46:42;21.97;;;11.07;;
55292;SDS011;41157;53.560;10.098;2024-03-08T05:49:09;22.37;;;10.83;;
55292;SDS011;41157;53.560;10.098;2024-03-08T05:51:38;28.40;;;11.10;;
55292;SDS011;41157;53.560;10.098;2024-03-08T05:54:06;21.33;;;10.60;;
55292;SDS011;41157;53.560;10.098;2024-03-08T05:56:34;18.93;;;10.33;;
55292;SDS011;41157;53.560;10.098;2024-03-08T05:59:02;20.00;;;10.40;;
55292;SDS011;41157;53.560;10.098;2024-03-08T06:01:29;21.80;;;10.97;;
55292;SDS011;41157;53.560;10.098;2024-03-08T06:03:57;23.70;;;10.63;;
55292;SDS011;41157;53.560;10.098;2024-03-08T06:06:24;19.97;;;11.03;;
55292;SDS011;41157;53.560;10.098;2024-03-08T06:08:52;23.50;;;10.07;;
55292;SDS011;41157;53.560;10.098;2024-03-08T06:11:21;20.63;;;10.47;;
55292;SDS011;41157;53.560;10.098;2024-03-08T06:13:48;21.97;;;11.60;;
55292;SDS011;41157;53.560;10.098;2024-03-08T06:16:16;24.23;;;12.60;;
55292;SDS011;41157;53.560;10.098;2024-03-08T06:18:43;21.97;;;11.47;;
55292;SDS011;41157;53.560;10.098;2024-03-08T06:21:12;19.97;;;10.53;;
55292;SDS011;41157;53.560;10.098;2024-03-08T06:23:39;27.93;;;12.17;;
55292;SDS011;41157;53.560;10.098;2024-03-08T06:26:07;20.80;;;11.20;;
55292;SDS011;41157;53.560;10.098;2024-03-08T06:28:34;23.97;;;11.70;;
55292;SDS011;41157;53.560;10.098;2024-03-08T06:31:01;25.60;;;10.87;;
55292;SDS011;41157;53.560;10.098;2024-03-08T06:33:29;25.80;;;10.90;;
55292;SDS011;41157;53.560;10.098;2024-03-08T06:35:57;22.37;;;11.03;;
55292;SDS011;41157;53.560;10.098;2024-03-08T06:38:24;26.13;;;11.53;;
55292;SDS011;41157;53.560;10.098;2024-03-08T06:40:51;20.80;;;11.43;;
55292;SDS011;41157;53.560;10.098;2024-03-08T06:43:21;22.83;;;10.80;;
55292;SDS011;41157;53.560;10.098;2024-03-08T06:45:50;24.70;;;11.43;;
55292;SDS011;41157;53.560;10.098;2024-03-08T06:48:17;22.13;;;11.37;;
55292;SDS011;41157;53.560;10.098;2024-03-08T06:50:44;22.87;;;12.23;;
55292;SDS011;41157;53.560;10.098;2024-03-08T06:53:12;22.73;;;11.50;;
55292;SDS011;41157;53.560;10.098;2024-03-08T06:55:39;23.03;;;12.30;;
55292;SDS011;41157;53.560;10.098;2024-03-08T06:58:06;27.47;;;13.20;;
55292;SDS011;41157;53.560;10.098;2024-03-08T07:00:34;21.33;;;11.53;;
55292;SDS011;41157;53.560;10.098;2024-03-08T07:03:01;27.90;;;12.07;;
55292;SDS011;41157;53.560;10.098;2024-03-08T07:05:28;26.07;;;12.47;;
55292;SDS011;41157;53.560;10.098;2024-03-08T07:07:55;26.27;;;11.73;;
55292;SDS011;41157;53.560;10.098;2024-03-08T07:10:23;22.37;;;11.43;;
55292;SDS011;41157;53.560;10.098;2024-03-08T07:12:50;25.80;;;12.43;;
55292;SDS011;41157;53.560;10.098;2024-03-08T07:15:18;23.33;;;12.03;;
55292;SDS011;41157;53.560;10.098;2024-03-08T07:17:47;28.47;;;12.80;;
55292;SDS011;41157;53.560;10.098;2024-03-08T07:20:14;24.63;;;12.90;;
55292;SDS011;41157;53.560;10.098;2024-03-08T07:22:44;29.40;;;13.00;;
55292;SDS011;41157;53.560;10.098;2024-03-08T07:25:12;24.70;;;12.70;;
55292;SDS011;41157;53.560;10.098;2024-03-08T07:27:49;25.33;;;12.27;;
55292;SDS011;41157;53.560;10.098;2024-03-08T07:30:17;26.90;;;13.33;;
55292;SDS011;41157;53.560;10.098;2024-03-08T07:32:59;20.20;;;11.93;;
55292;SDS011;41157;53.560;10.098;2024-03-08T07:35:27;24.93;;;12.60;;
55292;SDS011;41157;53.560;10.098;2024-03-08T07:37:54;25.20;;;13.07;;
55292;SDS011;41157;53.560;10.098;2024-03-08T07:40:21;24.33;;;13.53;;
55292;SDS011;41157;53.560;10.098;2024-03-08T07:42:49;22.10;;;11.63;;
55292;SDS011;41157;53.560;10.098;2024-03-08T07:45:16;22.13;;;12.57;;
55292;SDS011;41157;53.560;10.098;2024-03-08T07:47:43;24.57;;;11.83;;
55292;SDS011;41157;53.560;10.098;2024-03-08T07:50:12;25.33;;;12.20;;
55292;SDS011;41157;53.560;10.098;2024-03-08T07:52:41;21.30;;;11.67;;
55292;SDS011;41157;53.560;10.098;2024-03-08T07:55:08;22.90;;;12.47;;
55292;SDS011;41157;53.560;10.098;2024-03-08T07:57:36;21.00;;;12.77;;
55292;SDS011;41157;53.560;10.098;2024-03-08T08:00:04;19.73;;;11.97;;
55292;SDS011;41157;53.560;10.098;2024-03-08T08:02:33;20.37;;;12.00;;
55292;SDS011;41157;53.560;10.098;2024-03-08T08:05:00;19.80;;;11.77;;
55292;SDS011;41157;53.560;10.098;2024-03-08T08:07:30;17.97;;;11.23;;
55292;SDS011;41157;53.560;10.098;2024-03-08T08:09:57;19.87;;;11.77;;
55292;SDS011;41157;53.560;10.098;2024-03-08T08:12:24;20.77;;;11.63;;
55292;SDS011;41157;53.560;10.098;2024-03-08T08:14:51;17.20;;;11.47;;
55292;SDS011;41157;53.560;10.098;2024-03-08T08:17:18;18.23;;;11.73;;
55292;SDS011;41157;53.560;10.098;2024-03-08T08:19:45;20.03;;;11.83;;
55292;SDS011;41157;53.560;10.098;2024-03-08T08:22:12;17.67;;;12.43;;
55292;SDS011;41157;53.560;10.098;2024-03-08T08:24:40;20.60;;;11.83;;
55292;SDS011;41157;53.560;10.098;2024-03-08T08:27:07;18.73;;;11.90;;
55292;SDS011;41157;53.560;10.098;2024-03-08T08:29:36;20.13;;;11.53;;
55292;SDS011;41157;53.560;10.098;2024-03-08T08:32:05;18.20;;;11.95;;
55292;SDS011;41157;53.560;10.098;2024-03-08T08:34:32;17.75;;;12.10;;
55292;SDS011;41157;53.560;10.098;2024-03-08T08:36:59;19.58;;;12.10;;
55292;SDS011;41157;53.560;10.098;2024-03-08T08:39:26;18.83;;;12.55;;
55292;SDS011;41157;53.560;10.098;2024-03-08T08:41:54;19.27;;;12.38;;
55292;SDS011;41157;53.560;10.098;2024-03-08T08:44:22;18.40;;;12.18;;
55292;SDS011;41157;53.560;10.098;2024-03-08T08:46:50;18.17;;;12.30;;
55292;SDS011;41157;53.560;10.098;2024-03-08T08:49:18;22.55;;;12.85;;
55292;SDS011;41157;53.560;10.098;2024-03-08T08:51:48;19.92;;;12.75;;
55292;SDS011;41157;53.560;10.098;2024-03-08T08:54:15;20.25;;;12.50;;
55292;SDS011;41157;53.560;10.098;2024-03-08T08:56:42;17.55;;;12.30;;
55292;SDS011;41157;53.560;10.098;2024-03-08T08:59:11;16.85;;;12.13;;
55292;SDS011;41157;53.560;10.098;2024-03-08T09:01:38;17.45;;;11.27;;
55292;SDS011;41157;53.560;10.098;2024-03-08T09:04:05;18.33;;;12.15;;
55292;SDS011;41157;53.560;10.098;2024-03-08T09:06:33;17.20;;;11.82;;
55292;SDS011;41157;53.560;10.098;2024-03-08T09:09:01;18.70;;;11.68;;
55292;SDS011;41157;53.560;10.098;2024-03-08T09:11:29;16.77;;;12.50;;
55292;SDS011;41157;53.560;10.098;2024-03-08T09:13:56;19.88;;;12.50;;
55292;SDS011;41157;53.560;10.098;2024-03-08T09:16:24;19.02;;;11.90;;
55292;SDS011;41157;53.560;10.098;2024-03-08T09:18:51;16.42;;;11.88;;
55292;SDS011;41157;53.560;10.098;2024-03-08T09:21:18;17.58;;;12.52;;
55292;SDS011;41157;53.560;10.098;2024-03-08T09:23:45;15.30;;;11.73;;
55292;SDS011;41157;53.560;10.098;2024-03-08T09:26:12;15.93;;;11.20;;
55292;SDS011;41157;53.560;10.098;2024-03-08T09:28:40;14.45;;;11.68;;
55292;SDS011;41157;53.560;10.098;2024-03-08T09:31:07;16.92;;;11.77;;
55292;SDS011;41157;53.560;10.098;2024-03-08T09:33:37;17.25;;;11.80;;
55292;SDS011;41157;53.560;10.098;2024-03-08T09:36:05;16.08;;;12.32;;
55292;SDS011;41157;53.560;10.098;2024-03-08T09:38:33;17.80;;;11.45;;
55292;SDS011;41157;53.560;10.098;2024-03-08T09:41:00;15.70;;;12.35;;
55292;SDS011;41157;53.560;10.098;2024-03-08T09:43:29;16.38;;;11.80;;
55292;SDS011;41157;53.560;10.098;2024-03-08T09:45:56;16.08;;;12.25;;
55292;SDS011;41157;53.560;10.098;2024-03-08T09:48:23;15.70;;;11.20;;
55292;SDS011;41157;53.560;10.098;2024-03-08T09:50:53;18.30;;;12.15;;
55292;SDS011;41157;53.560;10.098;2024-03-08T09:53:21;16.52;;;11.70;;
55292;SDS011;41157;53.560;10.098;2024-03-08T09:55:48;15.98;;;12.30;;
55292;SDS011;41157;53.560;10.098;2024-03-08T09:58:15;19.60;;;11.57;;
55292;SDS011;41157;53.560;10.098;2024-03-08T10:00:55;15.00;;;11.68;;
55292;SDS011;41157;53.560;10.098;2024-03-08T10:03:23;14.48;;;11.95;;
55292;SDS011;41157;53.560;10.098;2024-03-08T10:05:51;15.43;;;12.13;;
55292;SDS011;41157;53.560;10.098;2024-03-08T10:08:20;13.70;;;11.60;;
55292;SDS011;41157;53.560;10.098;2024-03-08T10:10:47;14.13;;;11.32;;
55292;SDS011;41157;53.560;10.098;2024-03-08T10:13:14;20.35;;;11.38;;
55292;SDS011;41157;53.560;10.098;2024-03-08T10:15:44;16.15;;;11.82;;
55292;SDS011;41157;53.560;10.098;2024-03-08T10:18:11;15.88;;;11.38;;
55292;SDS011;41157;53.560;10.098;2024-03-08T10:20:38;17.67;;;11.95;;
55292;SDS011;41157;53.560;10.098;2024-03-08T10:23:06;21.25;;;11.90;;
55292;SDS011;41157;53.560;10.098;2024-03-08T10:25:36;16.65;;;11.27;;
55292;SDS011;41157;53.560;10.098;2024-03-08T10:28:03;17.20;;;12.32;;
55292;SDS011;41157;53.560;10.098;2024-03-08T10:30:30;15.20;;;11.02;;
55292;SDS011;41157;53.560;10.098;2024-03-08T10:32:57;21.05;;;11.82;;
55292;SDS011;41157;53.560;10.098;2024-03-08T10:35:24;21.10;;;11.77;;
